sensor_id;sensor_type;location;lat;lon;timestamp;temperature;humidity
9437;DHT22;4757;59.334;18.034;2023-11-19T00:00:32;-3.00;99.90
9437;DHT22;4757;59.334;18.034;2023-11-19T00:02:59;-3.00;99.90
9437;DHT22;4757;59.334;18.034;2023-11-19T00:05:27;-3.00;99.90
9437;DHT22;4757;59.334;18.034;2023-11-19T00:07:54;-3.90;99.90
9437;DHT22;4757;59.334;18.034;2023-11-19T00:10:22;-2.90;99.90
9437;DHT22;4757;59.334;18.034;2023-11-19T00:12:49;-3.00;99.90
9437;DHT22;4757;59.334;18.034;2023-11-19T00:15:19;-3.10;99.90
9437;DHT22;4757;59.334;18.034;2023-11-19T00:17:47;-3.20;99.90
9437;DHT22;4757;59.334;18.034;2023-11-19T00:20:19;-3.00;99.90
9437;DHT22;4757;59.334;18.034;2023-11-19T00:22:48;-3.10;99.90
9437;DHT22;4757;59.334;18.034;2023-11-19T00:25:19;-3.20;99.90
9437;DHT22;4757;59.334;18.034;2023-11-19T00:27:49;-3.30;99.90
9437;DHT22;4757;59.334;18.034;2023-11-19T00:30:19;-3.40;99.90
9437;DHT22;4757;59.334;18.034;2023-11-19T00:32:46;-3.40;99.90
9437;DHT22;4757;59.334;18.034;2023-11-19T00:35:13;-3.40;99.90
9437;DHT22;4757;59.334;18.034;2023-11-19T00:37:42;-3.30;99.90
9437;DHT22;4757;59.334;18.034;2023-11-19T00:40:15;-3.30;99.90
9437;DHT22;4757;59.334;18.034;2023-11-19T00:42:45;-3.30;99.90
9437;DHT22;4757;59.334;18.034;2023-11-19T00:45:12;-3.30;99.90
9437;DHT22;4757;59.334;18.034;2023-11-19T00:47:40;-3.20;99.90
9437;DHT22;4757;59.334;18.034;2023-11-19T00:50:08;-3.30;99.90
9437;DHT22;4757;59.334;18.034;2023-11-19T00:52:38;-3.40;99.90
9437;DHT22;4757;59.334;18.034;2023-11-19T00:55:06;-3.40;99.90
9437;DHT22;4757;59.334;18.034;2023-11-19T00:57:34;-3.50;99.90
9437;DHT22;4757;59.334;18.034;2023-11-19T01:00:03;-3.40;99.90
9437;DHT22;4757;59.334;18.034;2023-11-19T01:02:36;-3.50;99.90
9437;DHT22;4757;59.334;18.034;2023-11-19T01:05:04;-3.40;99.90
9437;DHT22;4757;59.334;18.034;2023-11-19T01:07:31;-3.40;99.90
9437;DHT22;4757;59.334;18.034;2023-11-19T01:09:58;-3.30;99.90
9437;DHT22;4757;59.334;18.034;2023-11-19T01:12:26;-3.30;99.90
9437;DHT22;4757;59.334;18.034;2023-11-19T01:14:53;-3.20;99.90
9437;DHT22;4757;59.334;18.034;2023-11-19T01:17:20;-3.10;99.90
9437;DHT22;4757;59.334;18.034;2023-11-19T01:19:47;-3.00;99.90
9437;DHT22;4757;59.334;18.034;2023-11-19T01:22:14;-3.10;99.90
9437;DHT22;4757;59.334;18.034;2023-11-19T01:24:41;-3.20;99.90
9437;DHT22;4757;59.334;18.034;2023-11-19T01:27:08;-3.20;99.90
9437;DHT22;4757;59.334;18.034;2023-11-19T01:29:35;-3.10;99.90
9437;DHT22;4757;59.334;18.034;2023-11-19T01:32:05;-3.10;99.90
9437;DHT22;4757;59.334;18.034;2023-11-19T01:34:32;-2.90;99.90
9437;DHT22;4757;59.334;18.034;2023-11-19T01:36:59;-3.10;99.90
9437;DHT22;4757;59.334;18.034;2023-11-19T01:39:26;-3.20;99.90
9437;DHT22;4757;59.334;18.034;2023-11-19T01:41:54;-3.20;99.90
9437;DHT22;4757;59.334;18.034;2023-11-19T01:44:21;-3.10;99.90
9437;DHT22;4757;59.334;18.034;2023-11-19T01:46:48;-3.30;99.90
9437;DHT22;4757;59.334;18.034;2023-11-19T01:49:17;-3.30;99.90
9437;DHT22;4757;59.334;18.034;2023-11-19T01:51:45;-3.40;99.90
9437;DHT22;4757;59.334;18.034;2023-11-19T01:54:14;-3.50;99.90
9437;DHT22;4757;59.334;18.034;2023-11-19T01:56:42;-3.40;99.90
9437;DHT22;4757;59.334;18.034;2023-11-19T01:59:11;-3.10;99.90
9437;DHT22;4757;59.334;18.034;2023-11-19T02:01:41;-3.20;99.90
9437;DHT22;4757;59.334;18.034;2023-11-19T02:04:09;-3.30;99.90
9437;DHT22;4757;59.334;18.034;2023-11-19T02:06:40;-3.20;99.90
9437;DHT22;4757;59.334;18.034;2023-11-19T02:09:08;-3.20;99.90
9437;DHT22;4757;59.334;18.034;2023-11-19T02:11:36;-3.30;99.90
9437;DHT22;4757;59.334;18.034;2023-11-19T02:14:03;-3.30;99.90
9437;DHT22;4757;59.334;18.034;2023-11-19T02:16:31;-3.30;99.90
9437;DHT22;4757;59.334;18.034;2023-11-19T02:18:58;-3.40;99.90
9437;DHT22;4757;59.334;18.034;2023-11-19T02:21:26;-3.30;99.90
9437;DHT22;4757;59.334;18.034;2023-11-19T02:23:53;-3.30;99.90
9437;DHT22;4757;59.334;18.034;2023-11-19T02:26:32;-3.30;99.90
9437;DHT22;4757;59.334;18.034;2023-11-19T02:29:00;-3.40;99.90
9437;DHT22;4757;59.334;18.034;2023-11-19T02:31:29;-3.50;99.90
9437;DHT22;4757;59.334;18.034;2023-11-19T02:33:56;-3.50;99.90
9437;DHT22;4757;59.334;18.034;2023-11-19T02:36:24;-3.70;99.90
9437;DHT22;4757;59.334;18.034;2023-11-19T02:38:50;-3.80;99.90
9437;DHT22;4757;59.334;18.034;2023-11-19T02:41:17;-3.90;99.90
9437;DHT22;4757;59.334;18.034;2023-11-19T02:43:45;-3.90;99.90
9437;DHT22;4757;59.334;18.034;2023-11-19T02:46:12;-3.30;99.90
9437;DHT22;4757;59.334;18.034;2023-11-19T02:48:42;-3.40;99.90
9437;DHT22;4757;59.334;18.034;2023-11-19T02:51:10;-3.30;99.90
9437;DHT22;4757;59.334;18.034;2023-11-19T02:53:37;-3.90;99.90
9437;DHT22;4757;59.334;18.034;2023-11-19T02:56:07;-3.80;99.90
9437;DHT22;4757;59.334;18.034;2023-11-19T02:58:53;-3.80;99.90
9437;DHT22;4757;59.334;18.034;2023-11-19T03:01:24;-3.90;99.90
9437;DHT22;4757;59.334;18.034;2023-11-19T03:03:58;-3.90;99.90
9437;DHT22;4757;59.334;18.034;2023-11-19T03:06:26;-4.00;99.90
9437;DHT22;4757;59.334;18.034;2023-11-19T03:08:55;-3.40;99.90
9437;DHT22;4757;59.334;18.034;2023-11-19T03:11:22;-3.90;99.90
9437;DHT22;4757;59.334;18.034;2023-11-19T03:13:49;-3.90;99.90
9437;DHT22;4757;59.334;18.034;2023-11-19T03:16:16;-3.30;99.90
9437;DHT22;4757;59.334;18.034;2023-11-19T03:18:44;-3.80;99.90
9437;DHT22;4757;59.334;18.034;2023-11-19T03:21:11;-4.00;99.90
9437;DHT22;4757;59.334;18.034;2023-11-19T03:23:39;-4.00;99.90
9437;DHT22;4757;59.334;18.034;2023-11-19T03:26:07;-4.00;99.90
9437;DHT22;4757;59.334;18.034;2023-11-19T03:28:35;-3.50;99.90
9437;DHT22;4757;59.334;18.034;2023-11-19T03:31:05;-3.80;99.90
9437;DHT22;4757;59.334;18.034;2023-11-19T03:33:35;-3.80;99.90
9437;DHT22;4757;59.334;18.034;2023-11-19T03:36:05;-3.80;99.90
9437;DHT22;4757;59.334;18.034;2023-11-19T03:38:32;-3.80;99.90
9437;DHT22;4757;59.334;18.034;2023-11-19T03:40:59;-4.00;99.90
9437;DHT22;4757;59.334;18.034;2023-11-19T03:43:27;-4.00;99.90
9437;DHT22;4757;59.334;18.034;2023-11-19T03:45:54;-3.90;99.90
9437;DHT22;4757;59.334;18.034;2023-11-19T03:48:21;-3.90;99.90
9437;DHT22;4757;59.334;18.034;2023-11-19T03:50:49;-3.60;99.90
9437;DHT22;4757;59.334;18.034;2023-11-19T03:53:16;-3.60;99.90
9437;DHT22;4757;59.334;18.034;2023-11-19T03:55:43;-3.60;99.90
9437;DHT22;4757;59.334;18.034;2023-11-19T03:58:10;-3.50;99.90
9437;DHT22;4757;59.334;18.034;2023-11-19T04:00:39;-3.50;99.90
9437;DHT22;4757;59.334;18.034;2023-11-19T04:03:06;-3.50;99.90
9437;DHT22;4757;59.334;18.034;2023-11-19T04:05:33;-3.50;99.90
9437;DHT22;4757;59.334;18.034;2023-11-19T04:08:00;-3.40;99.90
9437;DHT22;4757;59.334;18.034;2023-11-19T04:10:27;-3.30;99.90
9437;DHT22;4757;59.334;18.034;2023-11-19T04:12:54;-3.40;99.90
9437;DHT22;4757;59.334;18.034;2023-11-19T04:15:21;-3.30;99.90
9437;DHT22;4757;59.334;18.034;2023-11-19T04:17:49;-3.50;99.90
9437;DHT22;4757;59.334;18.034;2023-11-19T04:20:16;-3.50;99.90
9437;DHT22;4757;59.334;18.034;2023-11-19T04:22:43;-3.50;99.90
9437;DHT22;4757;59.334;18.034;2023-11-19T04:25:10;-3.60;99.90
9437;DHT22;4757;59.334;18.034;2023-11-19T04:27:38;-3.60;99.90
9437;DHT22;4757;59.334;18.034;2023-11-19T04:30:05;-3.50;99.90
9437;DHT22;4757;59.334;18.034;2023-11-19T04:32:37;-3.80;99.90
9437;DHT22;4757;59.334;18.034;2023-11-19T04:35:04;-3.60;99.90
9437;DHT22;4757;59.334;18.034;2023-11-19T04:37:33;-3.40;99.90
9437;DHT22;4757;59.334;18.034;2023-11-19T04:40:02;-3.40;99.90
9437;DHT22;4757;59.334;18.034;2023-11-19T04:42:30;-3.60;99.90
9437;DHT22;4757;59.334;18.034;2023-11-19T04:44:58;-3.40;99.90
9437;DHT22;4757;59.334;18.034;2023-11-19T04:47:25;-3.50;99.90
9437;DHT22;4757;59.334;18.034;2023-11-19T04:49:53;-3.60;99.90
9437;DHT22;4757;59.334;18.034;2023-11-19T04:52:20;-3.60;99.90
9437;DHT22;4757;59.334;18.034;2023-11-19T04:54:47;-3.60;99.90
9437;DHT22;4757;59.334;18.034;2023-11-19T04:57:15;-3.60;99.90
9437;DHT22;4757;59.334;18.034;2023-11-19T04:59:42;-3.50;99.90
9437;DHT22;4757;59.334;18.034;2023-11-19T05:02:09;-3.30;99.90
9437;DHT22;4757;59.334;18.034;2023-11-19T05:04:37;-3.10;99.90
9437;DHT22;4757;59.334;18.034;2023-11-19T05:07:07;-3.00;99.90
9437;DHT22;4757;59.334;18.034;2023-11-19T05:09:34;-3.10;99.90
9437;DHT22;4757;59.334;18.034;2023-11-19T05:12:01;-3.00;99.90
9437;DHT22;4757;59.334;18.034;2023-11-19T05:14:29;-3.00;99.90
9437;DHT22;4757;59.334;18.034;2023-11-19T05:16:56;-3.00;99.90
9437;DHT22;4757;59.334;18.034;2023-11-19T05:19:23;-2.50;99.90
9437;DHT22;4757;59.334;18.034;2023-11-19T05:21:50;-3.00;99.90
9437;DHT22;4757;59.334;18.034;2023-11-19T05:24:19;-3.00;99.90
9437;DHT22;4757;59.334;18.034;2023-11-19T05:26:46;-2.90;99.90
9437;DHT22;4757;59.334;18.034;2023-11-19T05:29:13;-2.90;99.90
9437;DHT22;4757;59.334;18.034;2023-11-19T05:31:41;-3.10;99.90
9437;DHT22;4757;59.334;18.034;2023-11-19T05:34:11;-4.90;99.90
9437;DHT22;4757;59.334;18.034;2023-11-19T05:36:38;-3.10;99.90
9437;DHT22;4757;59.334;18.034;2023-11-19T05:39:06;-3.10;99.90
9437;DHT22;4757;59.334;18.034;2023-11-19T05:41:33;-3.10;99.90
9437;DHT22;4757;59.334;18.034;2023-11-19T05:44:01;-2.90;99.90
9437;DHT22;4757;59.334;18.034;2023-11-19T05:46:29;-3.00;99.90
9437;DHT22;4757;59.334;18.034;2023-11-19T05:48:56;-2.90;99.90
9437;DHT22;4757;59.334;18.034;2023-11-19T05:51:23;-3.00;99.90
9437;DHT22;4757;59.334;18.034;2023-11-19T05:53:51;-3.00;99.90
9437;DHT22;4757;59.334;18.034;2023-11-19T05:56:19;-3.00;99.90
9437;DHT22;4757;59.334;18.034;2023-11-19T05:58:48;-2.70;99.90
9437;DHT22;4757;59.334;18.034;2023-11-19T06:01:16;-2.70;99.90
9437;DHT22;4757;59.334;18.034;2023-11-19T06:03:44;-2.70;99.90
9437;DHT22;4757;59.334;18.034;2023-11-19T06:06:16;-2.50;99.90
9437;DHT22;4757;59.334;18.034;2023-11-19T06:08:43;-3.30;99.90
9437;DHT22;4757;59.334;18.034;2023-11-19T06:11:11;-2.50;99.90
9437;DHT22;4757;59.334;18.034;2023-11-19T06:13:45;-2.40;99.90
9437;DHT22;4757;59.334;18.034;2023-11-19T06:16:13;-2.60;99.90
9437;DHT22;4757;59.334;18.034;2023-11-19T06:18:41;-2.50;99.90
9437;DHT22;4757;59.334;18.034;2023-11-19T06:21:08;-2.30;99.90
9437;DHT22;4757;59.334;18.034;2023-11-19T06:23:35;-2.40;99.90
9437;DHT22;4757;59.334;18.034;2023-11-19T06:26:03;-2.30;99.90
9437;DHT22;4757;59.334;18.034;2023-11-19T06:28:30;-2.20;99.90
9437;DHT22;4757;59.334;18.034;2023-11-19T06:30:57;-2.40;99.90
9437;DHT22;4757;59.334;18.034;2023-11-19T06:33:25;-2.40;99.90
9437;DHT22;4757;59.334;18.034;2023-11-19T06:35:52;-2.60;99.90
9437;DHT22;4757;59.334;18.034;2023-11-19T06:38:19;-2.50;99.90
9437;DHT22;4757;59.334;18.034;2023-11-19T06:40:46;-2.40;99.90
9437;DHT22;4757;59.334;18.034;2023-11-19T06:43:14;-2.30;99.90
9437;DHT22;4757;59.334;18.034;2023-11-19T06:45:42;-2.40;99.90
9437;DHT22;4757;59.334;18.034;2023-11-19T06:48:09;-2.50;99.90
9437;DHT22;4757;59.334;18.034;2023-11-19T06:50:36;-2.50;99.90
9437;DHT22;4757;59.334;18.034;2023-11-19T06:53:05;-2.50;99.90
9437;DHT22;4757;59.334;18.034;2023-11-19T06:55:37;-2.30;99.90
9437;DHT22;4757;59.334;18.034;2023-11-19T06:58:05;-2.40;99.90
9437;DHT22;4757;59.334;18.034;2023-11-19T07:00:32;-2.40;99.90
9437;DHT22;4757;59.334;18.034;2023-11-19T07:02:59;-2.30;99.90
9437;DHT22;4757;59.334;18.034;2023-11-19T07:05:30;-2.00;99.90
9437;DHT22;4757;59.334;18.034;2023-11-19T07:07:57;-2.00;99.90
9437;DHT22;4757;59.334;18.034;2023-11-19T07:10:24;-2.10;99.90
9437;DHT22;4757;59.334;18.034;2023-11-19T07:12:51;-2.10;99.90
9437;DHT22;4757;59.334;18.034;2023-11-19T07:15:18;-2.20;99.90
9437;DHT22;4757;59.334;18.034;2023-11-19T07:17:46;-2.10;99.90
9437;DHT22;4757;59.334;18.034;2023-11-19T07:20:28;-2.10;99.90
9437;DHT22;4757;59.334;18.034;2023-11-19T07:22:55;-2.00;99.90
9437;DHT22;4757;59.334;18.034;2023-11-19T07:25:24;-1.90;99.90
9437;DHT22;4757;59.334;18.034;2023-11-19T07:27:51;-1.80;99.90
9437;DHT22;4757;59.334;18.034;2023-11-19T07:30:19;-1.90;99.90
9437;DHT22;4757;59.334;18.034;2023-11-19T07:32:46;-2.10;99.90
9437;DHT22;4757;59.334;18.034;2023-11-19T07:35:14;-2.00;99.90
9437;DHT22;4757;59.334;18.034;2023-11-19T07:37:42;-2.00;99.90
9437;DHT22;4757;59.334;18.034;2023-11-19T07:40:10;-2.10;99.90
9437;DHT22;4757;59.334;18.034;2023-11-19T07:42:39;-2.00;99.90
9437;DHT22;4757;59.334;18.034;2023-11-19T07:45:06;-2.00;99.90
9437;DHT22;4757;59.334;18.034;2023-11-19T07:47:34;-2.10;99.90
9437;DHT22;4757;59.334;18.034;2023-11-19T07:50:01;-2.10;99.90
9437;DHT22;4757;59.334;18.034;2023-11-19T07:52:28;-2.10;99.90
9437;DHT22;4757;59.334;18.034;2023-11-19T07:54:55;-2.10;99.90
9437;DHT22;4757;59.334;18.034;2023-11-19T07:57:25;-2.00;99.90
9437;DHT22;4757;59.334;18.034;2023-11-19T07:59:54;-2.10;99.90
9437;DHT22;4757;59.334;18.034;2023-11-19T08:02:22;-2.10;99.90
9437;DHT22;4757;59.334;18.034;2023-11-19T08:04:50;-2.10;99.90
9437;DHT22;4757;59.334;18.034;2023-11-19T08:07:19;-2.10;99.90
9437;DHT22;4757;59.334;18.034;2023-11-19T08:09:46;-2.10;99.90
9437;DHT22;4757;59.334;18.034;2023-11-19T08:12:13;-2.10;99.90
9437;DHT22;4757;59.334;18.034;2023-11-19T08:14:42;-2.00;99.90
9437;DHT22;4757;59.334;18.034;2023-11-19T08:17:10;-3.50;99.90
9437;DHT22;4757;59.334;18.034;2023-11-19T08:19:37;-2.10;99.90
9437;DHT22;4757;59.334;18.034;2023-11-19T08:22:05;-2.10;99.90
9437;DHT22;4757;59.334;18.034;2023-11-19T08:24:32;-2.20;99.90
9437;DHT22;4757;59.334;18.034;2023-11-19T08:26:59;-2.00;99.90
9437;DHT22;4757;59.334;18.034;2023-11-19T08:29:29;-2.00;99.90
9437;DHT22;4757;59.334;18.034;2023-11-19T08:31:59;-2.00;99.90
9437;DHT22;4757;59.334;18.034;2023-11-19T08:34:29;-1.90;99.90
9437;DHT22;4757;59.334;18.034;2023-11-19T08:36:56;-2.00;99.90
9437;DHT22;4757;59.334;18.034;2023-11-19T08:39:23;-1.90;99.90
9437;DHT22;4757;59.334;18.034;2023-11-19T08:41:51;-1.90;99.90
9437;DHT22;4757;59.334;18.034;2023-11-19T08:44:18;-1.80;99.90
9437;DHT22;4757;59.334;18.034;2023-11-19T08:46:49;-1.80;99.90
9437;DHT22;4757;59.334;18.034;2023-11-19T08:49:17;-1.80;99.90
9437;DHT22;4757;59.334;18.034;2023-11-19T08:51:44;-1.80;99.90
9437;DHT22;4757;59.334;18.034;2023-11-19T08:54:12;-1.90;99.90
9437;DHT22;4757;59.334;18.034;2023-11-19T08:56:41;-2.00;99.90
9437;DHT22;4757;59.334;18.034;2023-11-19T08:59:08;-1.90;99.90
9437;DHT22;4757;59.334;18.034;2023-11-19T09:01:35;-1.90;99.90
9437;DHT22;4757;59.334;18.034;2023-11-19T09:04:03;-1.80;99.90
9437;DHT22;4757;59.334;18.034;2023-11-19T09:06:33;-1.80;99.90
9437;DHT22;4757;59.334;18.034;2023-11-19T09:09:00;-1.80;99.90
9437;DHT22;4757;59.334;18.034;2023-11-19T09:11:29;-1.80;99.90
9437;DHT22;4757;59.334;18.034;2023-11-19T09:13:57;-1.70;99.90
9437;DHT22;4757;59.334;18.034;2023-11-19T09:16:24;-1.80;99.90
9437;DHT22;4757;59.334;18.034;2023-11-19T09:18:52;-1.80;99.90
9437;DHT22;4757;59.334;18.034;2023-11-19T09:21:19;-1.90;99.90
9437;DHT22;4757;59.334;18.034;2023-11-19T09:23:46;-2.00;99.90
9437;DHT22;4757;59.334;18.034;2023-11-19T09:26:14;-1.90;99.90
9437;DHT22;4757;59.334;18.034;2023-11-19T09:28:41;-1.90;99.90
9437;DHT22;4757;59.334;18.034;2023-11-19T09:31:15;-1.80;99.90
9437;DHT22;4757;59.334;18.034;2023-11-19T09:33:43;-1.70;99.90
9437;DHT22;4757;59.334;18.034;2023-11-19T09:36:12;-1.70;99.90
9437;DHT22;4757;59.334;18.034;2023-11-19T09:38:41;-1.60;99.90
9437;DHT22;4757;59.334;18.034;2023-11-19T09:41:10;-1.80;99.90
9437;DHT22;4757;59.334;18.034;2023-11-19T09:43:39;-1.80;99.90
9437;DHT22;4757;59.334;18.034;2023-11-19T09:46:09;-1.70;99.90
9437;DHT22;4757;59.334;18.034;2023-11-19T09:48:38;-1.70;99.90
9437;DHT22;4757;59.334;18.034;2023-11-19T09:51:08;-1.70;99.90
9437;DHT22;4757;59.334;18.034;2023-11-19T09:53:36;-1.70;99.90
9437;DHT22;4757;59.334;18.034;2023-11-19T09:56:05;-1.70;99.90
9437;DHT22;4757;59.334;18.034;2023-11-19T09:58:32;-1.80;99.90
9437;DHT22;4757;59.334;18.034;2023-11-19T10:01:00;-1.70;99.90
9437;DHT22;4757;59.334;18.034;2023-11-19T10:03:34;-1.60;99.90
9437;DHT22;4757;59.334;18.034;2023-11-19T10:06:08;-1.50;99.90
9437;DHT22;4757;59.334;18.034;2023-11-19T10:08:39;-1.60;99.90
9437;DHT22;4757;59.334;18.034;2023-11-19T10:11:07;-1.60;99.90
9437;DHT22;4757;59.334;18.034;2023-11-19T10:13:35;-1.60;99.90
9437;DHT22;4757;59.334;18.034;2023-11-19T10:16:10;-1.60;99.90
9437;DHT22;4757;59.334;18.034;2023-11-19T10:18:49;-1.50;99.90
9437;DHT22;4757;59.334;18.034;2023-11-19T10:21:18;-1.50;99.90
9437;DHT22;4757;59.334;18.034;2023-11-19T10:23:55;-1.50;99.90
9437;DHT22;4757;59.334;18.034;2023-11-19T10:26:27;-1.40;99.90
9437;DHT22;4757;59.334;18.034;2023-11-19T10:28:57;-1.30;99.90
9437;DHT22;4757;59.334;18.034;2023-11-19T10:31:28;-1.30;99.90
9437;DHT22;4757;59.334;18.034;2023-11-19T10:33:55;-1.40;99.90
9437;DHT22;4757;59.334;18.034;2023-11-19T10:36:37;-1.30;99.90
9437;DHT22;4757;59.334;18.034;2023-11-19T10:39:07;-1.30;99.90
9437;DHT22;4757;59.334;18.034;2023-11-19T10:41:36;-1.30;99.90
9437;DHT22;4757;59.334;18.034;2023-11-19T10:44:03;-1.40;99.90
9437;DHT22;4757;59.334;18.034;2023-11-19T10:46:41;-1.30;99.90
9437;DHT22;4757;59.334;18.034;2023-11-19T10:49:08;-1.30;99.90
9437;DHT22;4757;59.334;18.034;2023-11-19T10:51:36;-1.40;99.90
9437;DHT22;4757;59.334;18.034;2023-11-19T10:54:05;-1.30;99.90
9437;DHT22;4757;59.334;18.034;2023-11-19T10:56:34;-1.30;99.90
9437;DHT22;4757;59.334;18.034;2023-11-19T10:59:01;-1.30;99.90
9437;DHT22;4757;59.334;18.034;2023-11-19T11:01:45;-1.40;99.90
9437;DHT22;4757;59.334;18.034;2023-11-19T11:04:21;-1.50;99.90
9437;DHT22;4757;59.334;18.034;2023-11-19T11:06:50;-1.30;99.90
9437;DHT22;4757;59.334;18.034;2023-11-19T11:09:18;-1.30;99.90
9437;DHT22;4757;59.334;18.034;2023-11-19T11:11:48;-1.30;99.90
9437;DHT22;4757;59.334;18.034;2023-11-19T11:14:20;-1.30;99.90
9437;DHT22;4757;59.334;18.034;2023-11-19T11:16:49;-1.30;99.90
9437;DHT22;4757;59.334;18.034;2023-11-19T11:19:18;-1.30;99.90
9437;DHT22;4757;59.334;18.034;2023-11-19T11:21:52;-1.40;99.90
9437;DHT22;4757;59.334;18.034;2023-11-19T11:24:39;-1.30;99.90
9437;DHT22;4757;59.334;18.034;2023-11-19T11:27:38;-1.30;99.90
9437;DHT22;4757;59.334;18.034;2023-11-19T11:30:35;-1.40;99.90
9437;DHT22;4757;59.334;18.034;2023-11-19T11:36:19;-1.40;99.90
9437;DHT22;4757;59.334;18.034;2023-11-19T11:38:50;-1.40;99.90
9437;DHT22;4757;59.334;18.034;2023-11-19T11:41:24;-1.40;99.90
9437;DHT22;4757;59.334;18.034;2023-11-19T11:43:56;-1.40;99.90
9437;DHT22;4757;59.334;18.034;2023-11-19T11:49:07;-1.60;99.90
9437;DHT22;4757;59.334;18.034;2023-11-19T11:57:07;-1.60;99.90
9437;DHT22;4757;59.334;18.034;2023-11-19T11:59:46;-1.60;99.90
9437;DHT22;4757;59.334;18.034;2023-11-19T12:02:22;-1.50;99.90
9437;DHT22;4757;59.334;18.034;2023-11-19T12:04:51;-1.50;99.90
9437;DHT22;4757;59.334;18.034;2023-11-19T12:07:21;-1.50;99.90
9437;DHT22;4757;59.334;18.034;2023-11-19T12:10:09;-1.60;99.90
9437;DHT22;4757;59.334;18.034;2023-11-19T12:12:40;-1.70;99.90
9437;DHT22;4757;59.334;18.034;2023-11-19T12:15:09;-1.70;99.90
9437;DHT22;4757;59.334;18.034;2023-11-19T12:17:42;0.90;99.90
9437;DHT22;4757;59.334;18.034;2023-11-19T12:20:11;-1.70;99.90
9437;DHT22;4757;59.334;18.034;2023-11-19T12:22:40;-1.70;99.90
9437;DHT22;4757;59.334;18.034;2023-11-19T12:25:09;-1.70;99.90
9437;DHT22;4757;59.334;18.034;2023-11-19T12:27:37;-1.60;99.90
9437;DHT22;4757;59.334;18.034;2023-11-19T12:30:06;-1.60;99.90
9437;DHT22;4757;59.334;18.034;2023-11-19T12:32:40;-1.50;99.90
9437;DHT22;4757;59.334;18.034;2023-11-19T12:35:09;-1.60;99.90
9437;DHT22;4757;59.334;18.034;2023-11-19T12:37:41;-1.50;99.90
9437;DHT22;4757;59.334;18.034;2023-11-19T12:40:19;-1.50;99.90
9437;DHT22;4757;59.334;18.034;2023-11-19T12:42:48;-1.60;99.90
9437;DHT22;4757;59.334;18.034;2023-11-19T12:45:16;-1.60;99.90
9437;DHT22;4757;59.334;18.034;2023-11-19T12:47:43;-1.60;99.90
9437;DHT22;4757;59.334;18.034;2023-11-19T12:50:11;-1.50;99.90
9437;DHT22;4757;59.334;18.034;2023-11-19T12:52:38;-1.50;99.90
9437;DHT22;4757;59.334;18.034;2023-11-19T12:55:24;-1.60;99.90
9437;DHT22;4757;59.334;18.034;2023-11-19T12:58:02;-1.50;99.90
9437;DHT22;4757;59.334;18.034;2023-11-19T13:00:30;-1.50;99.90
9437;DHT22;4757;59.334;18.034;2023-11-19T13:02:57;-1.50;99.90
9437;DHT22;4757;59.334;18.034;2023-11-19T13:05:33;-1.50;99.90
9437;DHT22;4757;59.334;18.034;2023-11-19T13:08:08;-1.50;99.90
9437;DHT22;4757;59.334;18.034;2023-11-19T13:13:15;-2.00;99.90
9437;DHT22;4757;59.334;18.034;2023-11-19T13:15:43;-1.40;99.90
9437;DHT22;4757;59.334;18.034;2023-11-19T13:18:13;-1.50;99.90
9437;DHT22;4757;59.334;18.034;2023-11-19T13:20:43;-1.40;99.90
9437;DHT22;4757;59.334;18.034;2023-11-19T13:23:10;-1.40;99.90
9437;DHT22;4757;59.334;18.034;2023-11-19T13:25:37;-1.30;99.90
9437;DHT22;4757;59.334;18.034;2023-11-19T13:28:04;-1.40;99.90
9437;DHT22;4757;59.334;18.034;2023-11-19T13:30:35;-1.30;99.90
9437;DHT22;4757;59.334;18.034;2023-11-19T13:33:02;-3.80;99.90
9437;DHT22;4757;59.334;18.034;2023-11-19T13:35:29;-1.40;99.90
9437;DHT22;4757;59.334;18.034;2023-11-19T13:37:56;-1.40;99.90
9437;DHT22;4757;59.334;18.034;2023-11-19T13:40:23;-1.60;99.90
9437;DHT22;4757;59.334;18.034;2023-11-19T13:42:52;-1.40;99.90
9437;DHT22;4757;59.334;18.034;2023-11-19T13:45:19;-1.30;99.90
9437;DHT22;4757;59.334;18.034;2023-11-19T13:47:48;-1.20;99.90
9437;DHT22;4757;59.334;18.034;2023-11-19T13:50:16;-1.50;99.90
9437;DHT22;4757;59.334;18.034;2023-11-19T13:52:46;-1.30;99.90
9437;DHT22;4757;59.334;18.034;2023-11-19T13:55:14;-1.30;99.90
9437;DHT22;4757;59.334;18.034;2023-11-19T13:57:42;-1.30;99.90
9437;DHT22;4757;59.334;18.034;2023-11-19T14:00:11;-1.30;99.90
9437;DHT22;4757;59.334;18.034;2023-11-19T14:02:49;-1.30;99.90
9437;DHT22;4757;59.334;18.034;2023-11-19T14:05:17;-1.20;99.90
9437;DHT22;4757;59.334;18.034;2023-11-19T14:08:07;-1.20;99.90
9437;DHT22;4757;59.334;18.034;2023-11-19T14:10:51;-0.40;99.90
9437;DHT22;4757;59.334;18.034;2023-11-19T14:13:19;-1.10;99.90
9437;DHT22;4757;59.334;18.034;2023-11-19T14:15:46;-1.10;99.90
9437;DHT22;4757;59.334;18.034;2023-11-19T14:18:16;-1.10;99.90
9437;DHT22;4757;59.334;18.034;2023-11-19T14:20:43;-1.10;99.90
9437;DHT22;4757;59.334;18.034;2023-11-19T14:23:11;-1.20;99.90
9437;DHT22;4757;59.334;18.034;2023-11-19T14:25:38;-1.20;99.90
9437;DHT22;4757;59.334;18.034;2023-11-19T14:28:05;-1.10;99.90
9437;DHT22;4757;59.334;18.034;2023-11-19T14:30:33;-1.10;99.90
9437;DHT22;4757;59.334;18.034;2023-11-19T14:33:02;-1.20;99.90
9437;DHT22;4757;59.334;18.034;2023-11-19T14:35:30;-1.10;99.90
9437;DHT22;4757;59.334;18.034;2023-11-19T14:38:00;-1.10;99.90
9437;DHT22;4757;59.334;18.034;2023-11-19T14:40:27;-1.10;99.90
9437;DHT22;4757;59.334;18.034;2023-11-19T14:42:57;-1.20;99.90
9437;DHT22;4757;59.334;18.034;2023-11-19T14:45:24;-1.20;99.90
9437;DHT22;4757;59.334;18.034;2023-11-19T14:47:51;-1.30;99.90
9437;DHT22;4757;59.334;18.034;2023-11-19T14:50:19;-1.20;99.90
9437;DHT22;4757;59.334;18.034;2023-11-19T14:52:46;-1.20;99.90
9437;DHT22;4757;59.334;18.034;2023-11-19T14:55:13;-1.20;99.90
9437;DHT22;4757;59.334;18.034;2023-11-19T14:57:44;-1.20;99.90
9437;DHT22;4757;59.334;18.034;2023-11-19T15:00:27;-1.20;99.90
9437;DHT22;4757;59.334;18.034;2023-11-19T15:02:54;-1.30;99.90
9437;DHT22;4757;59.334;18.034;2023-11-19T15:05:21;-1.10;99.90
9437;DHT22;4757;59.334;18.034;2023-11-19T15:07:49;-1.20;99.90
9437;DHT22;4757;59.334;18.034;2023-11-19T15:10:19;-1.10;99.90
9437;DHT22;4757;59.334;18.034;2023-11-19T15:12:46;-1.10;99.90
9437;DHT22;4757;59.334;18.034;2023-11-19T15:15:13;-1.10;99.90
9437;DHT22;4757;59.334;18.034;2023-11-19T15:17:41;-1.20;99.90
9437;DHT22;4757;59.334;18.034;2023-11-19T15:20:08;-1.10;99.90
9437;DHT22;4757;59.334;18.034;2023-11-19T15:22:36;-1.20;99.90
9437;DHT22;4757;59.334;18.034;2023-11-19T15:25:03;0.80;99.90
9437;DHT22;4757;59.334;18.034;2023-11-19T15:27:30;-1.10;99.90
9437;DHT22;4757;59.334;18.034;2023-11-19T15:29:57;-1.10;99.90
9437;DHT22;4757;59.334;18.034;2023-11-19T15:32:25;-1.00;99.90
9437;DHT22;4757;59.334;18.034;2023-11-19T15:34:52;-0.90;99.90
9437;DHT22;4757;59.334;18.034;2023-11-19T15:37:21;-1.00;99.90
9437;DHT22;4757;59.334;18.034;2023-11-19T15:39:48;-1.10;99.90
9437;DHT22;4757;59.334;18.034;2023-11-19T15:42:18;-1.10;99.90
9437;DHT22;4757;59.334;18.034;2023-11-19T15:44:45;-1.10;99.90
9437;DHT22;4757;59.334;18.034;2023-11-19T15:47:13;-1.20;99.90
9437;DHT22;4757;59.334;18.034;2023-11-19T15:49:41;-1.10;99.90
9437;DHT22;4757;59.334;18.034;2023-11-19T15:52:08;-1.20;99.90
9437;DHT22;4757;59.334;18.034;2023-11-19T15:54:36;-1.10;99.90
9437;DHT22;4757;59.334;18.034;2023-11-19T15:57:04;-1.00;99.90
9437;DHT22;4757;59.334;18.034;2023-11-19T15:59:31;-1.10;99.90
9437;DHT22;4757;59.334;18.034;2023-11-19T16:01:58;-1.10;99.90
9437;DHT22;4757;59.334;18.034;2023-11-19T16:04:25;-1.00;99.90
9437;DHT22;4757;59.334;18.034;2023-11-19T16:06:52;-1.00;99.90
9437;DHT22;4757;59.334;18.034;2023-11-19T16:09:19;-0.90;99.90
9437;DHT22;4757;59.334;18.034;2023-11-19T16:11:49;-0.90;99.90